createdAt,value
2022-12-26T00:00:00.794Z,2.80
2022-12-26T00:01:01.909Z,2.50
2022-12-26T00:02:01.016Z,2.60
2022-12-26T00:03:01.606Z,2.50
2022-12-26T00:04:00.810Z,3.10
2022-12-26T00:05:02.859Z,2.70
2022-12-26T00:06:01.134Z,2.70
2022-12-26T00:07:00.724Z,2.20
2022-12-26T00:08:01.244Z,2.50
2022-12-26T00:09:04.969Z,2.30
2022-12-26T00:10:00.804Z,2.60
2022-12-26T00:11:00.668Z,2.50
2022-12-26T00:12:00.744Z,2.70
2022-12-26T00:13:38.500Z,2.90
2022-12-26T00:14:01.964Z,2.60
2022-12-26T00:15:00.664Z,2.60
2022-12-26T00:16:01.819Z,2.90
2022-12-26T00:17:00.548Z,2.50
2022-12-26T00:18:01.473Z,2.40
2022-12-26T00:19:00.607Z,2.50
2022-12-26T00:20:02.239Z,2.20
2022-12-26T00:21:01.425Z,2.70
2022-12-26T00:22:01.356Z,2.50
2022-12-26T00:26:48.834Z,2.20
2022-12-26T00:27:49.598Z,2.40
2022-12-26T00:28:48.713Z,2.60
2022-12-26T00:29:52.579Z,2.60
2022-12-26T00:30:50.862Z,2.30
2022-12-26T00:31:49.999Z,2.50
2022-12-26T00:32:49.928Z,2.40
2022-12-26T00:33:50.867Z,2.50
2022-12-26T00:34:50.215Z,2.40
2022-12-26T00:35:49.964Z,2.30
2022-12-26T00:36:49.919Z,2.30
2022-12-26T00:37:49.907Z,2.20
2022-12-26T00:38:50.763Z,2.30
2022-12-26T00:39:49.918Z,2.40
2022-12-26T00:40:49.860Z,2.10
2022-12-26T00:41:49.752Z,2.60
2022-12-26T00:42:49.895Z,2.10
2022-12-26T00:43:50.473Z,2.20
2022-12-26T00:44:49.756Z,2.10
2022-12-26T00:45:49.765Z,2.10
2022-12-26T00:48:21.334Z,2.10
2022-12-26T00:49:20.334Z,2.20
2022-12-26T00:50:20.379Z,1.90
2022-12-26T00:51:21.206Z,2.40
2022-12-26T00:52:21.002Z,1.80
2022-12-26T00:53:20.427Z,2.50
2022-12-26T00:54:20.287Z,2.10
2022-12-26T00:55:20.313Z,2.00
2022-12-26T00:56:20.338Z,1.80
2022-12-26T00:57:20.670Z,2.30
2022-12-26T00:58:23.303Z,2.10
2022-12-26T00:59:20.241Z,2.30
2022-12-26T01:00:20.294Z,2.00
2022-12-26T01:01:21.467Z,2.10
2022-12-26T01:02:20.539Z,2.20
2022-12-26T01:03:20.361Z,2.10
2022-12-26T01:04:20.219Z,2.40
2022-12-26T01:05:20.207Z,2.10
2022-12-26T01:06:21.305Z,1.80
2022-12-26T01:07:20.262Z,1.90
2022-12-26T01:08:24.611Z,2.20
2022-12-26T01:09:20.188Z,1.90
2022-12-26T01:10:20.240Z,1.60
2022-12-26T01:11:20.143Z,1.70
2022-12-26T01:12:21.181Z,1.90
2022-12-26T01:13:20.165Z,1.90
2022-12-26T01:14:21.186Z,2.40
2022-12-26T01:15:20.177Z,1.80
2022-12-26T01:16:20.188Z,1.80
2022-12-26T01:17:20.028Z,1.70
2022-12-26T01:18:20.262Z,1.80
2022-12-26T01:19:20.084Z,1.60
2022-12-26T01:20:20.037Z,1.90
2022-12-26T01:21:20.188Z,1.70
2022-12-26T01:22:20.015Z,1.70
2022-12-26T01:23:20.041Z,1.80
2022-12-26T01:24:19.957Z,1.80
2022-12-26T01:25:20.007Z,1.90
2022-12-26T01:26:20.463Z,1.70
2022-12-26T01:27:20.907Z,1.90
2022-12-26T01:28:19.952Z,1.60
2022-12-26T01:29:19.979Z,1.50
2022-12-26T01:30:20.112Z,1.80
2022-12-26T01:31:20.041Z,1.60
2022-12-26T01:32:19.893Z,1.90
2022-12-26T01:33:19.904Z,1.80
2022-12-26T01:34:19.994Z,1.40
2022-12-26T01:35:19.945Z,1.70
2022-12-26T01:36:19.888Z,1.60
2022-12-26T01:37:22.133Z,1.80
2022-12-26T01:38:19.844Z,1.70
2022-12-26T01:39:19.845Z,1.40
2022-12-26T01:40:19.817Z,1.90
2022-12-26T01:41:20.597Z,1.50
2022-12-26T01:42:19.863Z,1.80
2022-12-26T01:43:19.787Z,1.50
2022-12-26T01:44:19.787Z,1.60
2022-12-26T01:45:19.785Z,1.50
2022-12-26T01:46:19.769Z,1.60
2022-12-26T01:47:19.726Z,1.90
2022-12-26T01:48:20.770Z,1.50
2022-12-26T01:49:19.814Z,1.90
2022-12-26T01:50:19.963Z,1.70
2022-12-26T01:51:19.672Z,1.40
2022-12-26T01:52:19.828Z,1.60
2022-12-26T01:53:19.904Z,1.50
2022-12-26T01:54:40.460Z,1.70
2022-12-26T01:55:20.687Z,1.70
2022-12-26T01:56:19.721Z,1.60
2022-12-26T01:57:19.694Z,1.90
2022-12-26T01:58:19.647Z,1.60
2022-12-26T01:59:19.586Z,1.50
2022-12-26T02:00:19.676Z,1.70
2022-12-26T02:01:19.781Z,1.80
2022-12-26T02:02:19.735Z,1.70
2022-12-26T02:03:19.713Z,1.80
2022-12-26T02:04:19.927Z,1.80
2022-12-26T02:05:19.611Z,1.90
2022-12-26T02:06:19.647Z,1.90
2022-12-26T02:07:19.605Z,1.50
2022-12-26T02:08:19.631Z,1.70
2022-12-26T02:09:19.719Z,1.50
2022-12-26T02:10:19.738Z,1.60
2022-12-26T02:11:19.511Z,1.60
2022-12-26T02:12:35.628Z,1.60
2022-12-26T02:13:20.662Z,1.70
2022-12-26T02:14:19.590Z,1.60
2022-12-26T02:15:19.457Z,1.40
2022-12-26T02:16:19.545Z,1.70
2022-12-26T02:17:19.436Z,1.50
2022-12-26T02:18:19.420Z,1.80
2022-12-26T02:19:19.458Z,1.50
2022-12-26T02:20:19.491Z,1.70
2022-12-26T02:21:19.387Z,1.70
2022-12-26T02:22:19.475Z,1.60
2022-12-26T02:23:19.363Z,1.50
2022-12-26T02:24:19.365Z,1.80
2022-12-26T02:25:19.337Z,1.70
2022-12-26T02:26:19.948Z,1.50
2022-12-26T02:27:19.382Z,1.90
2022-12-26T02:28:19.455Z,1.80
2022-12-26T02:29:19.354Z,1.50
2022-12-26T02:30:19.411Z,1.60
2022-12-26T02:31:19.376Z,1.40
2022-12-26T02:32:19.403Z,1.80
2022-12-26T02:33:19.324Z,1.80
2022-12-26T02:34:19.290Z,1.40
2022-12-26T02:35:19.282Z,1.40
2022-12-26T02:36:19.461Z,1.80
2022-12-26T02:37:19.405Z,1.70
2022-12-26T02:38:19.289Z,1.60
2022-12-26T02:39:43.609Z,1.60
2022-12-26T02:40:20.253Z,1.50
2022-12-26T02:41:19.301Z,1.50
2022-12-26T02:42:19.372Z,1.50
2022-12-26T02:43:19.274Z,1.60
2022-12-26T02:44:19.225Z,1.40
2022-12-26T02:45:19.265Z,1.50
2022-12-26T02:46:19.252Z,1.70
2022-12-26T02:47:19.213Z,1.40
2022-12-26T02:48:19.204Z,1.50
2022-12-26T02:49:19.228Z,1.70
2022-12-26T02:50:19.247Z,1.70
2022-12-26T02:51:19.563Z,1.50
2022-12-26T02:52:19.226Z,1.40
2022-12-26T02:53:19.125Z,1.40
2022-12-26T02:54:19.140Z,1.50
2022-12-26T02:55:19.084Z,1.50
2022-12-26T02:56:19.043Z,1.60
2022-12-26T02:57:19.111Z,1.40
2022-12-26T02:58:19.083Z,1.50
2022-12-26T02:59:19.080Z,1.50
2022-12-26T03:00:20.024Z,1.50
2022-12-26T03:01:19.129Z,1.20
2022-12-26T03:02:19.271Z,1.60
2022-12-26T03:03:19.095Z,1.60
2022-12-26T03:04:19.065Z,1.30
2022-12-26T03:05:19.020Z,1.60
2022-12-26T03:06:18.978Z,1.40
2022-12-26T03:07:18.931Z,1.70
2022-12-26T03:08:19.009Z,1.60
2022-12-26T03:09:18.920Z,1.50
2022-12-26T03:10:19.027Z,2.00
2022-12-26T03:11:19.270Z,1.40
2022-12-26T03:12:18.994Z,1.60
2022-12-26T03:13:18.929Z,1.60
2022-12-26T03:14:20.888Z,1.50
2022-12-26T03:15:18.901Z,1.60
2022-12-26T03:16:18.898Z,1.50
2022-12-26T03:17:18.832Z,1.50
2022-12-26T03:18:18.950Z,1.30
2022-12-26T03:19:19.860Z,1.70
2022-12-26T03:20:18.911Z,1.40
2022-12-26T03:21:18.851Z,1.50
2022-12-26T03:22:18.912Z,1.50
2022-12-26T03:23:18.846Z,1.30
2022-12-26T03:24:18.910Z,1.40
2022-12-26T03:25:18.867Z,1.50
2022-12-26T03:26:18.780Z,1.50
2022-12-26T03:27:18.793Z,1.40
2022-12-26T03:28:18.972Z,1.40
2022-12-26T03:29:19.285Z,1.40
2022-12-26T03:30:19.790Z,1.30
2022-12-26T03:31:19.113Z,1.40
2022-12-26T03:32:18.762Z,1.50
2022-12-26T03:33:18.709Z,1.70
2022-12-26T03:34:18.795Z,1.50
2022-12-26T03:35:18.727Z,1.40
2022-12-26T03:36:18.694Z,1.40
2022-12-26T03:37:18.703Z,1.50
2022-12-26T03:38:18.634Z,1.50
2022-12-26T03:39:18.729Z,1.40
2022-12-26T03:40:18.693Z,1.40
2022-12-26T03:41:18.593Z,1.30
2022-12-26T03:42:18.688Z,1.30
2022-12-26T03:43:18.680Z,1.50
2022-12-26T03:44:18.664Z,1.50
2022-12-26T03:45:18.598Z,1.20
2022-12-26T03:46:18.617Z,1.50
2022-12-26T03:47:18.649Z,1.70
2022-12-26T03:48:18.539Z,1.30
2022-12-26T03:49:18.527Z,1.50
2022-12-26T03:50:18.602Z,1.50
2022-12-26T03:51:18.535Z,1.50
2022-12-26T03:52:18.523Z,1.30
2022-12-26T03:53:18.543Z,1.30
2022-12-26T03:54:18.583Z,1.40
2022-12-26T03:55:18.561Z,1.60
2022-12-26T03:56:18.543Z,1.50
2022-12-26T03:57:18.707Z,1.60
2022-12-26T03:58:18.417Z,1.50
2022-12-26T03:59:18.595Z,1.50
2022-12-26T04:00:18.451Z,1.50
2022-12-26T04:01:18.619Z,1.60
2022-12-26T04:02:18.597Z,1.30
2022-12-26T04:03:18.502Z,1.40
2022-12-26T04:04:18.421Z,1.50
2022-12-26T04:05:18.386Z,1.40
2022-12-26T04:06:18.454Z,1.40
2022-12-26T04:07:18.385Z,1.70
2022-12-26T04:08:19.282Z,1.30
2022-12-26T04:09:19.377Z,1.50
2022-12-26T04:10:20.843Z,1.40
2022-12-26T04:11:18.361Z,1.70
2022-12-26T04:12:18.373Z,1.50
2022-12-26T04:13:18.369Z,1.30
2022-12-26T04:14:18.299Z,1.50
2022-12-26T04:15:18.340Z,1.30
2022-12-26T04:16:18.563Z,1.40
2022-12-26T04:17:18.274Z,1.30
2022-12-26T04:18:18.279Z,1.30
2022-12-26T04:19:18.246Z,1.30
2022-12-26T04:20:18.297Z,1.60
2022-12-26T04:21:18.260Z,1.40
2022-12-26T04:22:18.327Z,1.60
2022-12-26T04:23:18.218Z,1.40
2022-12-26T04:24:19.984Z,1.30
2022-12-26T04:25:18.240Z,1.60
2022-12-26T04:26:18.270Z,1.50
2022-12-26T04:27:18.286Z,1.40
2022-12-26T04:28:18.174Z,1.60
2022-12-26T04:29:18.170Z,1.50
2022-12-26T04:30:18.158Z,1.40
2022-12-26T04:31:18.224Z,1.60
2022-12-26T04:32:18.138Z,1.50
2022-12-26T04:33:18.107Z,1.60
2022-12-26T04:34:18.152Z,1.70
2022-12-26T04:35:18.093Z,1.40
2022-12-26T04:36:18.110Z,1.30
2022-12-26T04:37:18.049Z,1.30
2022-12-26T04:38:18.018Z,1.30
2022-12-26T04:39:18.090Z,1.30
2022-12-26T04:40:19.046Z,1.80
2022-12-26T04:41:18.053Z,1.50
2022-12-26T04:42:18.007Z,1.50
2022-12-26T04:43:48.925Z,1.50
2022-12-26T04:44:18.998Z,1.70
2022-12-26T04:45:17.983Z,1.50
2022-12-26T04:46:17.989Z,1.40
2022-12-26T04:47:17.970Z,1.10
2022-12-26T04:48:17.923Z,1.20
2022-12-26T04:49:17.963Z,1.60
2022-12-26T04:50:17.940Z,1.40
2022-12-26T04:51:18.152Z,1.40
2022-12-26T04:52:17.891Z,1.50
2022-12-26T04:53:17.885Z,1.40
2022-12-26T04:54:17.922Z,1.60
2022-12-26T04:55:17.868Z,1.40
2022-12-26T04:56:17.887Z,1.40
2022-12-26T04:57:17.821Z,1.40
2022-12-26T04:58:17.832Z,1.30
2022-12-26T04:59:17.912Z,1.20
2022-12-26T05:00:17.859Z,1.60
2022-12-26T05:01:17.888Z,1.50
2022-12-26T05:02:18.106Z,1.60
2022-12-26T05:03:19.396Z,1.60
2022-12-26T05:04:18.841Z,1.30
2022-12-26T05:05:17.736Z,1.50
2022-12-26T05:06:17.748Z,1.70
2022-12-26T05:07:17.731Z,1.50
2022-12-26T05:08:17.736Z,1.60
2022-12-26T05:09:17.767Z,1.70
2022-12-26T05:10:17.753Z,1.60
2022-12-26T05:11:17.758Z,1.60
2022-12-26T05:12:18.528Z,1.20
2022-12-26T05:13:17.753Z,1.60
2022-12-26T05:14:17.667Z,1.30
2022-12-26T05:15:17.718Z,1.50
2022-12-26T05:16:17.672Z,1.60
2022-12-26T05:17:17.701Z,1.40
2022-12-26T05:18:17.647Z,1.30
2022-12-26T05:19:17.640Z,1.40
2022-12-26T05:20:17.601Z,1.40
2022-12-26T05:21:17.668Z,1.60
2022-12-26T05:22:17.682Z,1.60
2022-12-26T05:23:17.642Z,1.40
2022-12-26T05:24:17.608Z,1.30
2022-12-26T05:25:17.612Z,1.30
2022-12-26T05:26:17.546Z,1.40
2022-12-26T05:27:17.597Z,1.40
2022-12-26T05:28:17.595Z,1.30
2022-12-26T05:29:17.552Z,1.60
2022-12-26T05:30:17.620Z,1.40
2022-12-26T05:31:17.615Z,1.60
2022-12-26T05:32:17.525Z,1.40
2022-12-26T05:33:17.579Z,1.50
2022-12-26T05:34:17.586Z,1.40
2022-12-26T05:35:17.480Z,1.30
2022-12-26T05:36:17.527Z,1.30
2022-12-26T05:37:17.537Z,1.50
2022-12-26T05:38:17.452Z,1.40
2022-12-26T05:39:17.485Z,1.60
2022-12-26T05:40:17.492Z,1.30
2022-12-26T05:41:17.450Z,1.30
2022-12-26T05:42:17.476Z,1.30
2022-12-26T05:43:17.435Z,1.00
2022-12-26T05:44:17.453Z,1.40
2022-12-26T05:45:17.368Z,1.30
2022-12-26T05:46:17.487Z,1.40
2022-12-26T05:47:17.450Z,1.20
2022-12-26T05:48:17.389Z,1.30
2022-12-26T05:49:17.592Z,1.20
2022-12-26T05:50:17.513Z,1.40
2022-12-26T05:51:17.413Z,1.40
2022-12-26T05:52:17.371Z,1.80
2022-12-26T05:53:17.455Z,1.30
2022-12-26T05:54:17.386Z,1.40
2022-12-26T05:55:17.281Z,1.50
2022-12-26T05:56:17.393Z,1.50
2022-12-26T05:57:17.372Z,1.40
2022-12-26T05:58:17.280Z,1.30
2022-12-26T05:59:17.331Z,1.20
2022-12-26T06:00:17.239Z,1.30
2022-12-26T06:01:17.284Z,1.20
2022-12-26T06:02:17.331Z,1.20
2022-12-26T06:03:17.328Z,1.30
2022-12-26T06:04:17.254Z,1.40
2022-12-26T06:05:17.253Z,1.60
2022-12-26T06:06:17.163Z,1.50
2022-12-26T06:07:17.161Z,1.30
2022-12-26T06:08:17.166Z,1.30
2022-12-26T06:09:17.149Z,1.40
2022-12-26T06:10:17.118Z,1.60
2022-12-26T06:11:17.133Z,1.40
2022-12-26T06:12:17.142Z,1.20
2022-12-26T06:13:17.131Z,1.30
2022-12-26T06:14:17.096Z,1.20
2022-12-26T06:15:17.066Z,1.30
2022-12-26T06:16:18.278Z,1.50
2022-12-26T06:17:17.061Z,1.20
2022-12-26T06:18:17.029Z,1.30
2022-12-26T06:32:09.736Z,1.00
2022-12-26T06:33:09.830Z,1.00
2022-12-26T06:34:09.780Z,1.00
2022-12-26T06:35:09.721Z,1.00
2022-12-26T06:36:10.813Z,1.10
2022-12-26T06:37:10.821Z,1.00
2022-12-26T06:38:10.833Z,1.30
2022-12-26T06:39:10.871Z,1.00
2022-12-26T06:40:10.919Z,0.80
2022-12-26T06:41:10.779Z,1.00
2022-12-26T06:42:10.815Z,1.30
2022-12-26T06:43:10.806Z,1.20
2022-12-26T06:44:17.761Z,1.00
2022-12-26T06:45:12.751Z,1.20
2022-12-26T06:46:10.746Z,1.00
2022-12-26T06:47:10.801Z,1.10
2022-12-26T06:48:10.758Z,1.10
2022-12-26T06:49:10.680Z,1.20
2022-12-26T06:50:10.731Z,1.10
2022-12-26T06:51:10.729Z,1.00
2022-12-26T06:52:10.673Z,1.30
2022-12-26T06:53:10.675Z,1.50
2022-12-26T06:54:10.709Z,1.20
2022-12-26T06:55:10.676Z,1.30
2022-12-26T06:56:10.664Z,1.20
2022-12-26T06:57:10.619Z,1.10
2022-12-26T06:58:10.623Z,1.20
2022-12-26T06:59:10.669Z,1.40
2022-12-26T07:00:10.696Z,1.30
2022-12-26T07:01:10.674Z,1.30
2022-12-26T07:02:10.733Z,1.10
2022-12-26T07:03:10.594Z,1.10
2022-12-26T07:04:10.566Z,1.10
2022-12-26T07:05:10.631Z,1.00
2022-12-26T07:06:10.563Z,1.00
2022-12-26T07:07:10.598Z,1.30
2022-12-26T07:08:10.537Z,1.20
2022-12-26T07:09:10.539Z,1.20
2022-12-26T07:10:10.486Z,1.40
2022-12-26T07:11:10.559Z,1.30
2022-12-26T07:12:10.520Z,1.10
2022-12-26T07:13:10.444Z,1.20
2022-12-26T07:14:10.442Z,0.90
2022-12-26T07:15:10.462Z,1.30
2022-12-26T07:16:10.463Z,0.90
2022-12-26T07:17:10.426Z,1.10
2022-12-26T07:18:10.422Z,1.10
2022-12-26T07:19:10.438Z,1.30
2022-12-26T07:20:10.446Z,1.00
2022-12-26T07:21:11.406Z,1.10
2022-12-26T07:22:10.445Z,1.60
2022-12-26T07:23:10.415Z,1.10
2022-12-26T07:24:10.482Z,1.20
2022-12-26T07:25:10.657Z,1.30
2022-12-26T07:26:10.902Z,1.20
2022-12-26T07:27:11.204Z,1.40
2022-12-26T07:28:27.160Z,1.40
2022-12-26T07:29:10.472Z,1.20
2022-12-26T07:30:10.414Z,1.50
2022-12-26T07:31:10.417Z,1.20
2022-12-26T07:32:10.445Z,1.30
2022-12-26T07:33:10.338Z,1.30
2022-12-26T07:34:10.373Z,1.10
2022-12-26T07:35:10.356Z,1.30
2022-12-26T07:36:10.295Z,1.10
2022-12-26T07:37:10.296Z,1.40
2022-12-26T07:38:10.248Z,1.20
2022-12-26T07:39:10.259Z,1.50
2022-12-26T07:40:10.294Z,1.40
2022-12-26T07:41:10.283Z,1.40
2022-12-26T07:42:10.255Z,1.50
2022-12-26T07:43:10.300Z,1.30
2022-12-26T07:44:10.228Z,1.20
2022-12-26T07:45:10.206Z,1.40
2022-12-26T07:46:10.320Z,1.60
2022-12-26T07:47:10.206Z,1.40
2022-12-26T07:48:10.173Z,0.70
2022-12-26T07:49:10.213Z,0.60
2022-12-26T07:50:10.195Z,0.50
2022-12-26T07:51:10.141Z,0.90
2022-12-26T07:52:10.121Z,0.50
2022-12-26T07:53:10.128Z,0.50
2022-12-26T07:54:11.677Z,0.50
2022-12-26T07:55:11.109Z,0.50
2022-12-26T07:56:10.061Z,0.50
2022-12-26T07:57:46.010Z,0.40
2022-12-26T07:58:12.140Z,0.40
2022-12-26T07:59:10.088Z,0.40
2022-12-26T08:00:10.070Z,0.50
2022-12-26T08:01:10.215Z,0.30
2022-12-26T08:02:10.225Z,0.20
2022-12-26T08:03:10.242Z,0.40
2022-12-26T08:04:10.049Z,0.40
2022-12-26T08:05:09.984Z,0.30
2022-12-26T08:06:10.000Z,0.50
2022-12-26T08:07:09.993Z,0.40
2022-12-26T08:08:09.976Z,0.60
2022-12-26T08:09:09.977Z,0.40
2022-12-26T08:10:10.019Z,0.50
2022-12-26T08:11:09.949Z,0.40
2022-12-26T08:12:09.951Z,0.40
2022-12-26T08:13:09.917Z,0.20
2022-12-26T08:14:09.937Z,0.40
2022-12-26T08:15:10.048Z,0.60
2022-12-26T08:16:09.985Z,0.40
2022-12-26T08:17:09.961Z,0.50
2022-12-26T08:18:09.920Z,0.50
2022-12-26T08:19:10.118Z,0.50
2022-12-26T08:20:09.878Z,0.50
2022-12-26T08:21:09.834Z,0.60
2022-12-26T08:22:09.826Z,0.60
2022-12-26T08:23:09.884Z,0.90
2022-12-26T08:24:09.845Z,0.60
2022-12-26T08:25:09.993Z,0.70
2022-12-26T08:26:09.814Z,0.80
2022-12-26T08:27:09.848Z,0.60
2022-12-26T08:28:09.823Z,1.10
2022-12-26T08:29:09.829Z,0.80
2022-12-26T08:30:09.864Z,1.00
2022-12-26T08:31:09.829Z,1.00
2022-12-26T08:34:21.202Z,0.60
2022-12-26T08:35:21.154Z,0.60
2022-12-26T08:36:21.156Z,0.50
2022-12-26T08:37:21.205Z,0.40
2022-12-26T08:38:21.053Z,0.30
2022-12-26T08:39:21.047Z,0.40
2022-12-26T08:40:40.023Z,0.50
2022-12-26T08:41:22.017Z,0.30
2022-12-26T08:42:21.005Z,0.60
2022-12-26T08:43:34.823Z,0.30
2022-12-26T08:44:27.350Z,0.30
2022-12-26T08:45:23.243Z,0.40
2022-12-26T08:46:22.218Z,0.30
2022-12-26T08:47:22.140Z,0.30
2022-12-26T08:48:22.128Z,0.30
2022-12-26T08:49:22.106Z,0.30
2022-12-26T08:50:22.305Z,0.50
2022-12-26T08:51:22.094Z,0.30
2022-12-26T08:52:22.172Z,0.30
2022-12-26T08:53:22.211Z,0.20
2022-12-26T08:54:22.064Z,0.20
2022-12-26T08:55:22.151Z,0.20
2022-12-26T08:56:22.068Z,0.30
2022-12-26T08:57:22.073Z,0.30
2022-12-26T08:58:22.176Z,0.20
2022-12-26T08:59:22.401Z,0.20
2022-12-26T09:00:22.161Z,0.40
2022-12-26T09:01:22.366Z,0.30
2022-12-26T09:02:55.420Z,0.20
2022-12-26T09:03:56.910Z,0.20
2022-12-26T09:04:48.631Z,0.20
2022-12-26T09:05:23.392Z,0.20
2022-12-26T09:08:43.899Z,0.20
2022-12-26T09:09:50.531Z,0.30
2022-12-26T09:10:42.896Z,0.10
2022-12-26T09:14:35.831Z,0.30
2022-12-26T09:15:44.868Z,0.20
2022-12-26T09:16:49.712Z,0.20
2022-12-26T09:20:28.615Z,0.20
2022-12-26T09:21:36.603Z,2.10
2022-12-26T09:22:37.698Z,0.10
2022-12-26T09:24:02.939Z,0.20
2022-12-26T09:24:30.861Z,0.10
2022-12-26T09:26:03.480Z,0.20
2022-12-26T09:27:02.707Z,0.30
2022-12-26T09:27:59.281Z,0.20
2022-12-26T09:29:02.534Z,0.30
2022-12-26T09:30:13.964Z,0.10
2022-12-26T09:31:12.787Z,0.20
2022-12-26T09:33:28.595Z,0.30
2022-12-26T09:36:14.258Z,0.40
2022-12-26T09:37:25.120Z,0.60
2022-12-26T09:38:09.239Z,1.80
2022-12-26T09:39:08.786Z,2.10
2022-12-26T09:40:10.235Z,0.90
2022-12-26T09:41:09.991Z,0.40
2022-12-26T09:42:42.980Z,1.40
2022-12-26T09:43:48.281Z,0.70
2022-12-26T09:44:10.270Z,1.30
2022-12-26T09:45:10.109Z,1.30
2022-12-26T09:46:10.798Z,0.30
2022-12-26T09:47:10.232Z,0.20
2022-12-26T09:48:42.695Z,0.20
2022-12-26T09:49:10.188Z,0.40
2022-12-26T09:50:10.068Z,0.20
2022-12-26T09:51:10.696Z,0.30
2022-12-26T09:52:09.992Z,0.20
2022-12-26T09:53:10.232Z,0.30
2022-12-26T09:57:01.246Z,0.90
2022-12-26T09:57:20.624Z,1.90
